sensor_id;sensor_type;location;lat;lon;timestamp;pressure;altitude;pressure_sealevel;temperature;humidity
61337;BME280;47212;41.326;2.104;2023-04-01T00:03:02;101581.81;;;16.74;67.86
61337;BME280;47212;41.326;2.104;2023-04-01T00:08:38;101585.13;;;16.71;68.65
61337;BME280;47212;41.326;2.104;2023-04-01T00:13:41;101582.94;;;16.68;68.38
61337;BME280;47212;41.326;2.104;2023-04-01T00:19:01;101582.94;;;16.68;67.93
61337;BME280;47212;41.326;2.104;2023-04-01T00:24:14;101596.97;;;16.66;67.83
61337;BME280;47212;41.326;2.104;2023-04-01T00:29:36;101587.31;;;16.64;68.20
61337;BME280;47212;41.326;2.104;2023-04-01T00:34:51;101585.16;;;16.61;68.13
61337;BME280;47212;41.326;2.104;2023-04-01T00:39:58;101584.06;;;16.56;68.08
61337;BME280;47212;41.326;2.104;2023-04-01T00:45:35;101560.19;;;16.52;68.92
61337;BME280;47212;41.326;2.104;2023-04-01T00:50:53;101546.72;;;16.50;68.55
61337;BME280;47212;41.326;2.104;2023-04-01T00:56:17;101548.34;;;16.51;68.72
61337;BME280;47212;41.326;2.104;2023-04-01T01:12:07;101564.31;;;16.44;68.74
61337;BME280;47212;41.326;2.104;2023-04-01T01:17:48;101573.09;;;16.41;69.23
61337;BME280;47212;41.326;2.104;2023-04-01T01:29:00;101552.81;;;16.32;68.42
61337;BME280;47212;41.326;2.104;2023-04-01T01:40:02;101553.41;;;16.24;68.53
61337;BME280;47212;41.326;2.104;2023-04-01T01:45:35;101553.97;;;16.21;68.83
61337;BME280;47212;41.326;2.104;2023-04-01T01:50:47;101552.88;;;16.17;68.99
61337;BME280;47212;41.326;2.104;2023-04-01T01:56:02;101548.75;;;16.14;69.16
61337;BME280;47212;41.326;2.104;2023-04-01T02:01:28;101533.38;;;16.13;68.78
61337;BME280;47212;41.326;2.104;2023-04-01T02:06:46;101519.41;;;16.10;69.28
61337;BME280;47212;41.326;2.104;2023-04-01T02:11:59;101524.88;;;16.10;68.89
61337;BME280;47212;41.326;2.104;2023-04-01T02:17:14;101532.59;;;16.08;68.77
61337;BME280;47212;41.326;2.104;2023-04-01T02:22:22;101526.56;;;16.06;69.36
61337;BME280;47212;41.326;2.104;2023-04-01T02:27:25;101517.78;;;16.04;69.03
61337;BME280;47212;41.326;2.104;2023-04-01T02:32:29;101500.75;;;16.02;69.25
61337;BME280;47212;41.326;2.104;2023-04-01T02:37:33;101499.66;;;16.03;69.69
61337;BME280;47212;41.326;2.104;2023-04-01T02:42:38;101521.59;;;16.08;69.39
61337;BME280;47212;41.326;2.104;2023-04-01T02:47:40;101527.63;;;16.10;69.83
61337;BME280;47212;41.326;2.104;2023-04-01T02:52:43;101517.75;;;16.09;69.28
61337;BME280;47212;41.326;2.104;2023-04-01T02:57:46;101516.38;;;16.06;69.82
61337;BME280;47212;41.326;2.104;2023-04-01T03:02:48;101507.06;;;16.02;69.45
61337;BME280;47212;41.326;2.104;2023-04-01T03:07:50;101505.72;;;15.95;69.52
61337;BME280;47212;41.326;2.104;2023-04-01T03:12:53;101512.88;;;15.90;69.62
61337;BME280;47212;41.326;2.104;2023-04-01T03:17:55;101519.47;;;15.84;69.70
61337;BME280;47212;41.326;2.104;2023-04-01T03:23:01;101502.47;;;15.82;69.67
61337;BME280;47212;41.326;2.104;2023-04-01T03:28:15;101508.50;;;15.79;69.45
61337;BME280;47212;41.326;2.104;2023-04-01T03:33:43;101511.81;;;15.76;69.65
61337;BME280;47212;41.326;2.104;2023-04-01T03:38:46;101507.41;;;15.75;69.77
61337;BME280;47212;41.326;2.104;2023-04-01T03:43:53;101511.25;;;15.74;69.90
61337;BME280;47212;41.326;2.104;2023-04-01T03:48:57;101493.97;;;15.74;70.29
61337;BME280;47212;41.326;2.104;2023-04-01T03:53:59;101500.28;;;15.74;70.42
61337;BME280;47212;41.326;2.104;2023-04-01T03:59:04;101488.75;;;15.77;70.52
61337;BME280;47212;41.326;2.104;2023-04-01T04:04:07;101489.28;;;15.79;70.59
61337;BME280;47212;41.326;2.104;2023-04-01T04:09:10;101486.00;;;15.82;70.58
61337;BME280;47212;41.326;2.104;2023-04-01T04:14:18;101493.66;;;15.85;70.92
61337;BME280;47212;41.326;2.104;2023-04-01T04:19:21;101492.00;;;15.89;70.54
61337;BME280;47212;41.326;2.104;2023-04-01T04:24:25;101506.81;;;15.93;71.05
61337;BME280;47212;41.326;2.104;2023-04-01T04:29:42;101486.22;;;15.96;71.36
61337;BME280;47212;41.326;2.104;2023-04-01T04:34:44;101501.31;;;15.99;71.67
61337;BME280;47212;41.326;2.104;2023-04-01T04:39:46;101494.72;;;16.00;73.22
61337;BME280;47212;41.326;2.104;2023-04-01T04:44:49;101495.81;;;15.99;72.35
61337;BME280;47212;41.326;2.104;2023-04-01T04:49:51;101489.50;;;15.98;73.30
61337;BME280;47212;41.326;2.104;2023-04-01T04:54:53;101484.28;;;16.02;73.70
61337;BME280;47212;41.326;2.104;2023-04-01T04:59:55;101478.78;;;16.02;75.61
61337;BME280;47212;41.326;2.104;2023-04-01T05:05:16;101476.03;;;16.02;73.45
61337;BME280;47212;41.326;2.104;2023-04-01T05:10:19;101488.66;;;16.03;74.12
61337;BME280;47212;41.326;2.104;2023-04-01T05:15:22;101503.50;;;16.02;74.26
61337;BME280;47212;41.326;2.104;2023-04-01T05:20:25;101508.44;;;16.00;73.92
61337;BME280;47212;41.326;2.104;2023-04-01T05:25:27;101515.31;;;15.97;74.60
61337;BME280;47212;41.326;2.104;2023-04-01T05:30:30;101517.53;;;15.95;74.53
61337;BME280;47212;41.326;2.104;2023-04-01T05:35:41;101520.28;;;15.95;74.52
61337;BME280;47212;41.326;2.104;2023-04-01T05:40:44;101508.47;;;15.95;74.36
61337;BME280;47212;41.326;2.104;2023-04-01T05:45:48;101515.63;;;15.90;74.83
61337;BME280;47212;41.326;2.104;2023-04-01T05:51:16;101526.63;;;15.80;72.96
61337;BME280;47212;41.326;2.104;2023-04-01T05:56:18;101518.41;;;15.70;72.88
61337;BME280;47212;41.326;2.104;2023-04-01T06:01:23;101527.47;;;15.66;72.47
61337;BME280;47212;41.326;2.104;2023-04-01T06:06:27;101530.47;;;15.59;72.14
61337;BME280;47212;41.326;2.104;2023-04-01T06:27:58;101546.38;;;15.47;65.11
61337;BME280;47212;41.326;2.104;2023-04-01T06:44:30;101538.16;;;15.42;65.83
61337;BME280;47212;41.326;2.104;2023-04-01T06:50:16;101548.31;;;15.36;64.20
61337;BME280;47212;41.326;2.104;2023-04-01T06:55:53;101538.69;;;15.28;62.40
61337;BME280;47212;41.326;2.104;2023-04-01T07:01:53;101528.28;;;15.25;60.07
61337;BME280;47212;41.326;2.104;2023-04-01T07:07:04;101515.66;;;15.29;60.68
61337;BME280;47212;41.326;2.104;2023-04-01T07:12:23;101534.59;;;15.31;57.28
61337;BME280;47212;41.326;2.104;2023-04-01T07:18:17;101521.41;;;15.33;57.46
61337;BME280;47212;41.326;2.104;2023-04-01T07:23:42;101526.34;;;15.36;57.50
61337;BME280;47212;41.326;2.104;2023-04-01T07:29:14;101515.38;;;15.36;55.98
61337;BME280;47212;41.326;2.104;2023-04-01T07:56:06;101537.88;;;15.48;51.32
61337;BME280;47212;41.326;2.104;2023-04-01T08:07:06;101559.81;;;15.53;50.32
61337;BME280;47212;41.326;2.104;2023-04-01T08:18:03;101566.41;;;15.52;51.57
61337;BME280;47212;41.326;2.104;2023-04-01T08:23:19;101561.19;;;15.51;48.88
61337;BME280;47212;41.326;2.104;2023-04-01T08:28:33;101565.31;;;15.53;48.94
61337;BME280;47212;41.326;2.104;2023-04-01T08:33:46;101558.75;;;15.59;50.67
61337;BME280;47212;41.326;2.104;2023-04-01T08:38:54;101571.66;;;15.64;51.42
61337;BME280;47212;41.326;2.104;2023-04-01T08:44:10;101570.56;;;15.70;49.41
61337;BME280;47212;41.326;2.104;2023-04-01T08:49:26;101562.31;;;15.75;49.02
61337;BME280;47212;41.326;2.104;2023-04-01T09:28:02;101549.56;;;16.25;48.11
61337;BME280;47212;41.326;2.104;2023-04-01T09:38:50;101550.59;;;16.39;49.06
61337;BME280;47212;41.326;2.104;2023-04-01T09:49:55;101557.66;;;16.61;46.43
61337;BME280;47212;41.326;2.104;2023-04-01T10:01:00;101550.13;;;16.86;49.19
61337;BME280;47212;41.326;2.104;2023-04-01T10:17:56;101515.47;;;17.54;44.25
61337;BME280;47212;41.326;2.104;2023-04-01T10:23:27;101526.91;;;17.95;42.98
61337;BME280;47212;41.326;2.104;2023-04-01T10:40:03;101520.47;;;19.41;41.66
61337;BME280;47212;41.326;2.104;2023-04-01T10:51:32;101498.91;;;19.89;42.74
61337;BME280;47212;41.326;2.104;2023-04-01T11:13:05;101456.25;;;20.09;38.15
61337;BME280;47212;41.326;2.104;2023-04-01T12:01:25;101397.81;;;19.75;42.27
61337;BME280;47212;41.326;2.104;2023-04-01T12:07:27;101380.09;;;19.76;38.37
61337;BME280;47212;41.326;2.104;2023-04-01T12:33:45;101328.06;;;19.55;40.11
61337;BME280;47212;41.326;2.104;2023-04-01T12:49:49;101322.13;;;19.62;39.50
61337;BME280;47212;41.326;2.104;2023-04-01T13:00:50;101281.91;;;19.69;41.73
61337;BME280;47212;41.326;2.104;2023-04-01T13:17:14;101241.41;;;20.01;45.37
61337;BME280;47212;41.326;2.104;2023-04-01T13:27:44;101225.59;;;20.15;44.33
61337;BME280;47212;41.326;2.104;2023-04-01T13:33:20;101193.66;;;20.31;42.04
61337;BME280;47212;41.326;2.104;2023-04-01T13:38:48;101206.16;;;20.51;40.68
61337;BME280;47212;41.326;2.104;2023-04-01T14:01:13;101133.19;;;21.35;34.79
61337;BME280;47212;41.326;2.104;2023-04-01T14:06:33;101138.72;;;21.70;30.10
61337;BME280;47212;41.326;2.104;2023-04-01T14:11:56;101121.25;;;21.95;33.31
61337;BME280;47212;41.326;2.104;2023-04-01T14:50:27;101074.06;;;22.50;31.17
61337;BME280;47212;41.326;2.104;2023-04-01T15:38:53;101044.00;;;22.32;30.11
61337;BME280;47212;41.326;2.104;2023-04-01T15:49:50;101043.41;;;22.17;30.39
61337;BME280;47212;41.326;2.104;2023-04-01T16:05:52;101044.59;;;21.99;32.62
61337;BME280;47212;41.326;2.104;2023-04-01T16:22:41;101033.41;;;22.25;29.40
61337;BME280;47212;41.326;2.104;2023-04-01T16:28:03;101033.28;;;22.21;29.36
61337;BME280;47212;41.326;2.104;2023-04-01T16:44:24;100996.31;;;22.00;29.74
61337;BME280;47212;41.326;2.104;2023-04-01T16:55:12;100987.38;;;21.94;27.07
61337;BME280;47212;41.326;2.104;2023-04-01T17:00:28;100971.94;;;21.85;26.19
61337;BME280;47212;41.326;2.104;2023-04-01T17:06:12;100978.34;;;21.77;27.33
61337;BME280;47212;41.326;2.104;2023-04-01T17:11:18;100962.88;;;21.58;26.67
61337;BME280;47212;41.326;2.104;2023-04-01T17:16:54;100957.25;;;21.38;27.22
61337;BME280;47212;41.326;2.104;2023-04-01T17:22:31;100936.28;;;21.28;27.44
61337;BME280;47212;41.326;2.104;2023-04-01T17:33:35;100963.31;;;21.14;30.32
61337;BME280;47212;41.326;2.104;2023-04-01T17:38:56;100954.19;;;21.05;28.26
61337;BME280;47212;41.326;2.104;2023-04-01T18:38:39;101046.59;;;20.21;30.96
61337;BME280;47212;41.326;2.104;2023-04-01T19:00:14;101149.16;;;19.30;47.65
61337;BME280;47212;41.326;2.104;2023-04-01T19:05:30;101190.88;;;18.87;53.22
61337;BME280;47212;41.326;2.104;2023-04-01T19:11:07;101226.44;;;18.29;50.33
61337;BME280;47212;41.326;2.104;2023-04-01T19:16:07;101231.94;;;18.10;52.06
61337;BME280;47212;41.326;2.104;2023-04-01T19:21:28;101182.28;;;17.82;54.81
61337;BME280;47212;41.326;2.104;2023-04-01T19:26:36;101184.19;;;17.63;55.41
61337;BME280;47212;41.326;2.104;2023-04-01T19:48:00;101308.38;;;16.90;54.71
61337;BME280;47212;41.326;2.104;2023-04-01T20:04:25;101296.59;;;16.55;58.85
61337;BME280;47212;41.326;2.104;2023-04-01T20:10:25;101280.69;;;16.52;58.32
61337;BME280;47212;41.326;2.104;2023-04-01T20:15:33;101312.16;;;16.31;59.79
61337;BME280;47212;41.326;2.104;2023-04-01T20:20:38;101350.25;;;16.04;58.36
61337;BME280;47212;41.326;2.104;2023-04-01T20:25:49;101381.81;;;16.06;61.41
61337;BME280;47212;41.326;2.104;2023-04-01T20:52:45;101380.03;;;15.81;63.21
61337;BME280;47212;41.326;2.104;2023-04-01T21:08:57;101363.75;;;15.10;66.28
61337;BME280;47212;41.326;2.104;2023-04-01T21:36:10;101335.81;;;15.03;67.01
61337;BME280;47212;41.326;2.104;2023-04-01T22:08:56;101332.53;;;15.01;66.49
61337;BME280;47212;41.326;2.104;2023-04-01T22:14:33;101345.41;;;15.01;66.36
61337;BME280;47212;41.326;2.104;2023-04-01T22:20:03;101343.50;;;15.01;66.42
61337;BME280;47212;41.326;2.104;2023-04-01T22:31:05;101341.56;;;14.96;66.35
61337;BME280;47212;41.326;2.104;2023-04-01T22:41:16;101335.00;;;14.92;65.15
61337;BME280;47212;41.326;2.104;2023-04-01T22:57:03;101324.34;;;14.76;66.33
61337;BME280;47212;41.326;2.104;2023-04-01T23:02:30;101317.22;;;14.75;66.61
61337;BME280;47212;41.326;2.104;2023-04-01T23:13:01;101292.00;;;14.68;66.34
61337;BME280;47212;41.326;2.104;2023-04-01T23:28:56;101302.69;;;14.59;66.97
61337;BME280;47212;41.326;2.104;2023-04-01T23:39:38;101296.38;;;14.53;67.73
61337;BME280;47212;41.326;2.104;2023-04-01T23:44:42;101284.88;;;14.51;66.94
61337;BME280;47212;41.326;2.104;2023-04-01T23:49:55;101293.66;;;14.48;68.15
61337;BME280;47212;41.326;2.104;2023-04-01T23:55:16;101310.59;;;14.40;68.17
